Time;durP1;ratioP1;P1;durP2;ratioP2;P2;SDS_P1;SDS_P2;PMS_P1;PMS_P2;Temp;Humidity;BMP_temperature;BMP_pressure;BME280_temperature;BME280_humidity;BME280_pressure;Samples;Min_cycle;Max_cycle;Signal;HPM_P1;HPM_P2
2023/01/22 00:02:20;;;;;;;31.92;17.55;;;;;;;;;;5050240;28;20556;-81
2023/01/22 00:04:46;;;;;;;33.65;20.77;;;;;;;;;;5053134;28;20181;-78
2023/01/22 00:07:14;;;;;;;32.65;19.55;;;;;;;;;;5071632;28;20230;-78
2023/01/22 00:09:40;;;;;;;27.45;17.85;;;;;;;;;;5056265;28;20211;-78
2023/01/22 00:12:07;;;;;;;30.60;17.58;;;;;;;;;;5038367;28;20544;-78
2023/01/22 00:14:33;;;;;;;32.45;19.52;;;;;;;;;;5038560;28;20180;-78
2023/01/22 00:16:59;;;;;;;35.03;19.67;;;;;;;;;;5071292;28;20570;-79
2023/01/22 00:19:25;;;;;;;31.48;18.15;;;;;;;;;;5038416;28;20200;-78
2023/01/22 00:21:51;;;;;;;31.23;17.42;;;;;;;;;;5056320;28;20208;-78
2023/01/22 00:24:17;;;;;;;29.90;17.15;;;;;;;;;;5054720;28;20174;-78
2023/01/22 00:26:43;;;;;;;30.52;17.27;;;;;;;;;;5071359;28;20515;-78
2023/01/22 00:29:09;;;;;;;34.00;19.08;;;;;;;;;;5055808;28;20297;-77
2023/01/22 00:31:36;;;;;;;36.63;19.10;;;;;;;;;;5055207;28;20183;-78
2023/01/22 00:34:02;;;;;;;30.48;18.73;;;;;;;;;;5056364;28;20174;-79
2023/01/22 00:36:28;;;;;;;35.67;18.83;;;;;;;;;;5038037;28;20195;-78
2023/01/22 00:38:54;;;;;;;30.95;17.77;;;;;;;;;;5056093;28;20194;-78
2023/01/22 00:41:20;;;;;;;33.90;18.60;;;;;;;;;;5071307;28;20178;-78
2023/01/22 00:43:47;;;;;;;33.55;19.83;;;;;;;;;;5071680;28;20171;-78
2023/01/22 00:46:14;;;;;;;31.42;18.98;;;;;;;;;;5055403;28;20170;-78
2023/01/22 00:48:40;;;;;;;31.08;17.92;;;;;;;;;;5037956;28;20229;-78
2023/01/22 00:51:07;;;;;;;31.02;17.40;;;;;;;;;;5037773;28;20201;-78
2023/01/22 00:53:33;;;;;;;27.65;18.10;;;;;;;;;;5056277;28;20175;-78
2023/01/22 00:56:01;;;;;;;28.95;18.13;;;;;;;;;;5056198;28;20236;-78
2023/01/22 00:58:27;;;;;;;31.35;18.00;;;;;;;;;;5038092;28;20237;-78
2023/01/22 01:00:54;;;;;;;33.58;18.50;;;;;;;;;;5071647;28;20181;-79
2023/01/22 01:03:25;;;;;;;30.48;17.52;;;;;;;;;;5055719;28;20536;-79
2023/01/22 01:05:52;;;;;;;26.98;17.45;;;;;;;;;;5055813;28;20155;-78
2023/01/22 01:08:18;;;;;;;26.95;16.63;;;;;;;;;;5036564;28;20233;-78
2023/01/22 01:10:44;;;;;;;29.50;16.77;;;;;;;;;;5071223;28;20209;-78
2023/01/22 01:13:10;;;;;;;29.38;16.85;;;;;;;;;;5054569;28;20427;-78
2023/01/22 01:15:36;;;;;;;29.70;17.77;;;;;;;;;;5038292;28;20197;-78
2023/01/22 01:18:02;;;;;;;28.20;17.80;;;;;;;;;;5055043;28;20656;-80
2023/01/22 01:20:28;;;;;;;25.63;16.23;;;;;;;;;;5070278;28;20264;-78
2023/01/22 01:22:54;;;;;;;27.92;16.65;;;;;;;;;;5054456;28;20216;-78
2023/01/22 01:25:20;;;;;;;31.93;17.80;;;;;;;;;;5037292;28;20545;-78
2023/01/22 01:27:46;;;;;;;27.10;16.87;;;;;;;;;;5072104;28;20408;-78
2023/01/22 01:30:12;;;;;;;34.30;19.20;;;;;;;;;;5058844;28;20455;-77
2023/01/22 01:32:38;;;;;;;26.83;16.42;;;;;;;;;;5057950;28;20195;-78
2023/01/22 01:35:05;;;;;;;28.43;17.53;;;;;;;;;;5041249;28;20525;-82
2023/01/22 01:37:31;;;;;;;27.15;16.15;;;;;;;;;;5059380;28;20422;-78
2023/01/22 01:39:57;;;;;;;24.45;14.70;;;;;;;;;;5040907;28;20212;-79
2023/01/22 01:42:30;;;;;;;31.43;17.73;;;;;;;;;;5059606;28;20210;-78
2023/01/22 01:45:15;;;;;;;28.08;17.45;;;;;;;;;;5041584;28;20431;-78
2023/01/22 01:47:41;;;;;;;24.50;17.65;;;;;;;;;;5041204;28;20181;-78
2023/01/22 01:50:07;;;;;;;24.47;16.20;;;;;;;;;;5040812;28;20205;-79
2023/01/22 01:52:33;;;;;;;30.02;18.30;;;;;;;;;;5040984;28;20431;-78
2023/01/22 01:55:00;;;;;;;27.75;16.92;;;;;;;;;;5040730;28;20194;-78
2023/01/22 01:57:27;;;;;;;26.30;17.58;;;;;;;;;;5056930;28;20174;-78
2023/01/22 01:59:53;;;;;;;32.78;18.70;;;;;;;;;;5058787;28;20524;-78
2023/01/22 02:02:20;;;;;;;25.30;18.38;;;;;;;;;;5057403;28;20183;-79
2023/01/22 02:04:46;;;;;;;29.30;18.80;;;;;;;;;;5058966;28;20173;-78
2023/01/22 02:07:12;;;;;;;27.27;16.65;;;;;;;;;;5072673;28;20225;-78
2023/01/22 02:09:38;;;;;;;23.52;15.13;;;;;;;;;;5057249;28;20306;-78
2023/01/22 02:12:04;;;;;;;30.75;18.35;;;;;;;;;;5040492;28;20514;-78
2023/01/22 02:14:36;;;;;;;28.23;17.08;;;;;;;;;;5057887;28;20264;-78
2023/01/22 02:17:02;;;;;;;30.00;18.42;;;;;;;;;;5057878;28;20525;-77
2023/01/22 02:19:27;;;;;;;28.23;18.02;;;;;;;;;;5073243;28;20282;-78
2023/01/22 02:21:53;;;;;;;34.47;19.90;;;;;;;;;;5073479;28;20181;-79
2023/01/22 02:24:19;;;;;;;30.92;18.92;;;;;;;;;;5073439;28;20457;-77
2023/01/22 02:26:45;;;;;;;35.27;19.33;;;;;;;;;;5058652;28;20180;-78
2023/01/22 02:29:12;;;;;;;31.77;18.15;;;;;;;;;;5056384;28;20978;-78
2023/01/22 02:31:39;;;;;;;28.30;17.20;;;;;;;;;;5073749;28;20193;-78
2023/01/22 02:34:06;;;;;;;32.05;18.20;;;;;;;;;;5073757;28;20530;-78
2023/01/22 02:36:33;;;;;;;26.98;17.90;;;;;;;;;;5073140;28;20622;-78
2023/01/22 02:38:59;;;;;;;26.65;17.70;;;;;;;;;;5039810;28;20575;-79
2023/01/22 02:41:25;;;;;;;26.63;17.10;;;;;;;;;;5072819;28;20181;-78
2023/01/22 02:43:51;;;;;;;30.77;16.98;;;;;;;;;;5073493;28;20184;-78
2023/01/22 02:46:17;;;;;;;32.38;18.00;;;;;;;;;;5040061;28;20235;-78
2023/01/22 02:48:43;;;;;;;28.95;18.73;;;;;;;;;;5057690;28;20202;-77
2023/01/22 02:51:10;;;;;;;26.73;16.92;;;;;;;;;;5072964;28;20252;-79
2023/01/22 02:53:36;;;;;;;30.40;17.73;;;;;;;;;;5073211;28;20174;-78
2023/01/22 02:56:06;;;;;;;26.10;17.13;;;;;;;;;;5073217;28;20319;-78
2023/01/22 02:58:31;;;;;;;30.77;16.42;;;;;;;;;;5057435;28;20408;-78
2023/01/22 03:01:06;;;;;;;26.85;16.80;;;;;;;;;;5073214;28;20173;-78
2023/01/22 03:03:32;;;;;;;26.02;16.95;;;;;;;;;;5072451;28;20236;-78
2023/01/22 03:05:58;;;;;;;24.53;17.20;;;;;;;;;;5057521;28;20177;-77
2023/01/22 03:08:25;;;;;;;33.10;18.67;;;;;;;;;;5072021;28;20485;-78
2023/01/22 03:10:56;;;;;;;27.55;19.23;;;;;;;;;;5056336;28;20612;-78
2023/01/22 03:21:42;;;;;;;33.42;18.20;;;;;;;;;;5057354;28;20242;-78
2023/01/22 03:24:09;;;;;;;29.58;18.50;;;;;;;;;;5057150;28;20642;-78
2023/01/22 03:26:35;;;;;;;28.77;18.17;;;;;;;;;;5056534;28;20171;-78
2023/01/22 03:29:01;;;;;;;28.08;17.85;;;;;;;;;;5072217;28;20205;-78
2023/01/22 03:31:27;;;;;;;30.92;17.67;;;;;;;;;;5039415;28;20273;-78
2023/01/22 03:33:53;;;;;;;29.60;18.05;;;;;;;;;;5057221;28;20209;-78
2023/01/22 03:36:19;;;;;;;27.60;18.77;;;;;;;;;;5055441;28;20642;-78
2023/01/22 03:38:45;;;;;;;25.30;16.70;;;;;;;;;;5056720;28;20767;-78
2023/01/22 03:41:12;;;;;;;27.48;16.70;;;;;;;;;;5072107;28;20448;-82
2023/01/22 03:43:38;;;;;;;26.77;16.80;;;;;;;;;;5072142;28;20183;-78
2023/01/22 03:46:06;;;;;;;24.30;18.77;;;;;;;;;;5039229;28;20175;-78
2023/01/22 03:48:32;;;;;;;29.20;18.40;;;;;;;;;;5056122;28;20261;-78
2023/01/22 03:51:04;;;;;;;29.92;18.33;;;;;;;;;;5056136;28;20181;-77
2023/01/22 03:53:30;;;;;;;29.35;19.40;;;;;;;;;;5056499;28;20162;-78
2023/01/22 03:55:57;;;;;;;27.88;17.33;;;;;;;;;;5038598;28;20202;-77
2023/01/22 03:58:23;;;;;;;26.92;18.45;;;;;;;;;;5072136;28;20197;-78
2023/01/22 04:00:49;;;;;;;33.70;17.38;;;;;;;;;;5057748;28;20265;-77
2023/01/22 04:03:15;;;;;;;24.83;16.30;;;;;;;;;;5035457;28;20218;-78
2023/01/22 04:05:41;;;;;;;30.70;19.17;;;;;;;;;;5059635;28;20435;-79
2023/01/22 04:08:07;;;;;;;27.13;17.93;;;;;;;;;;5052928;28;20462;-78
2023/01/22 04:10:34;;;;;;;27.15;18.45;;;;;;;;;;5067622;28;20511;-77
2023/01/22 04:13:00;;;;;;;32.93;21.20;;;;;;;;;;5064258;28;20189;-79
2023/01/22 04:15:26;;;;;;;29.43;18.90;;;;;;;;;;5029799;28;20503;-78
2023/01/22 04:17:52;;;;;;;26.73;18.17;;;;;;;;;;5046235;28;20412;-77
2023/01/22 04:20:18;;;;;;;23.47;16.80;;;;;;;;;;5025053;28;20521;-78
2023/01/22 04:22:43;;;;;;;25.92;17.83;;;;;;;;;;5053115;28;20928;-78
2023/01/22 04:25:09;;;;;;;29.30;17.90;;;;;;;;;;5049752;28;20178;-78
2023/01/22 04:27:36;;;;;;;28.58;17.83;;;;;;;;;;5045451;28;20431;-78
2023/01/22 04:30:04;;;;;;;28.42;17.85;;;;;;;;;;5062670;28;20212;-78
2023/01/22 04:32:30;;;;;;;33.05;18.83;;;;;;;;;;5062120;28;20202;-78
2023/01/22 04:34:57;;;;;;;27.50;18.43;;;;;;;;;;5064906;28;20181;-78
2023/01/22 04:37:23;;;;;;;27.88;17.30;;;;;;;;;;5047002;28;20433;-78
2023/01/22 04:39:49;;;;;;;26.30;16.80;;;;;;;;;;5061807;28;20192;-79
2023/01/22 04:42:15;;;;;;;27.05;19.20;;;;;;;;;;5042966;28;20175;-81
2023/01/22 04:44:41;;;;;;;26.63;17.25;;;;;;;;;;5065122;28;20649;-78
2023/01/22 04:47:07;;;;;;;25.35;16.48;;;;;;;;;;5033497;28;20181;-78
2023/01/22 04:49:33;;;;;;;25.10;16.02;;;;;;;;;;5060792;28;20201;-78
2023/01/22 04:51:59;;;;;;;26.70;18.30;;;;;;;;;;5045829;28;20188;-78
2023/01/22 04:54:25;;;;;;;26.65;17.02;;;;;;;;;;5045088;28;20419;-78
2023/01/22 04:56:51;;;;;;;23.42;16.80;;;;;;;;;;5057116;28;20647;-78
2023/01/22 04:59:17;;;;;;;25.55;17.42;;;;;;;;;;5025777;28;20234;-79
2023/01/22 05:01:43;;;;;;;24.48;16.38;;;;;;;;;;5054105;28;20237;-80
2023/01/22 05:04:10;;;;;;;26.92;17.45;;;;;;;;;;5046807;28;20264;-78
2023/01/22 05:06:36;;;;;;;25.25;17.27;;;;;;;;;;5072392;28;20228;-78
2023/01/22 05:09:02;;;;;;;25.63;16.38;;;;;;;;;;5042236;28;20245;-77
2023/01/22 05:11:28;;;;;;;21.90;14.60;;;;;;;;;;5028083;28;20685;-79
2023/01/22 05:13:54;;;;;;;23.63;15.98;;;;;;;;;;5054508;28;20177;-78
2023/01/22 05:16:20;;;;;;;27.25;18.17;;;;;;;;;;5055416;28;20237;-79
2023/01/22 05:18:46;;;;;;;24.50;17.50;;;;;;;;;;5030487;28;20185;-78
2023/01/22 05:21:12;;;;;;;23.13;16.37;;;;;;;;;;5048674;28;20539;-78
2023/01/22 05:23:38;;;;;;;22.48;16.20;;;;;;;;;;5050497;28;20432;-79
2023/01/22 05:26:04;;;;;;;25.60;16.35;;;;;;;;;;5054847;28;20556;-79
2023/01/22 05:28:29;;;;;;;23.50;16.00;;;;;;;;;;5058946;28;20185;-78
2023/01/22 05:30:55;;;;;;;23.70;15.83;;;;;;;;;;5060899;28;20653;-78
2023/01/22 05:33:21;;;;;;;26.37;15.13;;;;;;;;;;5041942;28;20422;-78
2023/01/22 05:35:54;;;;;;;21.77;16.67;;;;;;;;;;5050379;28;20476;-78
2023/01/22 05:38:20;;;;;;;24.23;15.45;;;;;;;;;;5052540;28;20437;-78
2023/01/22 05:40:46;;;;;;;20.47;15.40;;;;;;;;;;5048585;28;20194;-77
2023/01/22 05:43:12;;;;;;;23.03;16.23;;;;;;;;;;5031768;28;20891;-77
2023/01/22 05:45:38;;;;;;;22.45;15.20;;;;;;;;;;5048857;28;20425;-79
2023/01/22 05:48:04;;;;;;;24.43;15.13;;;;;;;;;;5045994;28;20173;-78
2023/01/22 05:50:30;;;;;;;27.25;16.67;;;;;;;;;;5071604;28;20450;-77
2023/01/22 05:52:56;;;;;;;25.15;16.25;;;;;;;;;;5061673;28;20544;-78
2023/01/22 05:55:22;;;;;;;22.40;15.30;;;;;;;;;;5070553;28;20260;-78
2023/01/22 05:57:48;;;;;;;25.85;15.40;;;;;;;;;;5048216;28;20454;-78
2023/01/22 06:00:15;;;;;;;24.75;16.55;;;;;;;;;;5037353;28;20218;-78
2023/01/22 06:02:41;;;;;;;24.60;16.10;;;;;;;;;;5068231;28;20187;-78
2023/01/22 06:05:07;;;;;;;22.23;15.23;;;;;;;;;;5047651;28;21665;-77
2023/01/22 06:07:33;;;;;;;23.35;16.40;;;;;;;;;;5071928;28;20488;-77
2023/01/22 06:09:59;;;;;;;22.85;17.40;;;;;;;;;;5051277;28;20296;-78
2023/01/22 06:12:25;;;;;;;22.53;16.50;;;;;;;;;;5039372;28;20720;-78
2023/01/22 06:14:54;;;;;;;21.58;14.90;;;;;;;;;;5058327;28;20490;-78
2023/01/22 06:17:20;;;;;;;23.08;15.15;;;;;;;;;;5051268;28;20538;-79
2023/01/22 06:19:46;;;;;;;23.02;16.73;;;;;;;;;;5059517;28;20199;-78
2023/01/22 06:22:12;;;;;;;23.63;16.60;;;;;;;;;;5042309;28;20186;-78
2023/01/22 06:24:38;;;;;;;22.52;14.40;;;;;;;;;;5044658;28;20631;-78
2023/01/22 06:27:04;;;;;;;24.33;17.10;;;;;;;;;;5034345;28;20178;-78
2023/01/22 06:29:30;;;;;;;25.48;17.45;;;;;;;;;;5052877;28;20465;-77
2023/01/22 06:31:56;;;;;;;22.30;17.08;;;;;;;;;;5071136;28;20189;-78
2023/01/22 06:34:22;;;;;;;22.50;16.92;;;;;;;;;;5040816;28;20602;-79
2023/01/22 06:36:48;;;;;;;20.55;15.35;;;;;;;;;;5052833;28;20190;-77
2023/01/22 06:39:14;;;;;;;25.02;16.55;;;;;;;;;;5027827;28;20205;-78
2023/01/22 06:41:40;;;;;;;25.02;15.98;;;;;;;;;;5051898;28;20185;-78
2023/01/22 06:44:06;;;;;;;23.43;15.77;;;;;;;;;;5063711;28;20178;-78
2023/01/22 06:46:32;;;;;;;25.80;17.83;;;;;;;;;;5053174;28;20431;-78
2023/01/22 06:49:00;;;;;;;25.02;16.35;;;;;;;;;;5049494;28;20896;-78
2023/01/22 06:51:26;;;;;;;21.52;15.27;;;;;;;;;;5037172;28;20190;-78
2023/01/22 06:53:52;;;;;;;24.42;16.55;;;;;;;;;;5042152;28;20177;-77
2023/01/22 06:56:18;;;;;;;27.60;16.73;;;;;;;;;;5051048;28;20634;-78
2023/01/22 06:58:44;;;;;;;25.00;16.20;;;;;;;;;;5040162;28;20532;-77
2023/01/22 07:01:10;;;;;;;27.93;17.57;;;;;;;;;;5066474;28;20473;-78
2023/01/22 07:03:36;;;;;;;22.57;16.50;;;;;;;;;;5042808;28;20420;-78
2023/01/22 07:06:03;;;;;;;21.93;15.30;;;;;;;;;;5063688;28;20418;-78
2023/01/22 07:08:30;;;;;;;23.65;16.23;;;;;;;;;;5063976;28;20476;-77
2023/01/22 07:10:56;;;;;;;19.52;13.88;;;;;;;;;;5069947;28;20707;-77
2023/01/22 07:13:22;;;;;;;20.25;15.38;;;;;;;;;;5043085;28;20183;-78
2023/01/22 07:15:48;;;;;;;25.63;17.42;;;;;;;;;;5030806;28;20188;-78
2023/01/22 07:18:14;;;;;;;23.98;17.15;;;;;;;;;;5029475;28;20640;-79
2023/01/22 07:20:41;;;;;;;21.90;15.30;;;;;;;;;;5043295;28;20177;-79
2023/01/22 07:23:07;;;;;;;21.08;15.95;;;;;;;;;;5059563;28;20182;-78
2023/01/22 07:25:33;;;;;;;27.98;16.40;;;;;;;;;;5042099;28;20182;-78
2023/01/22 07:27:59;;;;;;;24.90;17.23;;;;;;;;;;5043230;28;20694;-80
2023/01/22 07:30:25;;;;;;;24.00;17.58;;;;;;;;;;5025431;28;20227;-81
2023/01/22 07:32:51;;;;;;;23.27;15.85;;;;;;;;;;5051581;28;20537;-78
2023/01/22 07:35:18;;;;;;;23.27;16.73;;;;;;;;;;5045081;28;20255;-78
2023/01/22 07:37:50;;;;;;;24.52;16.40;;;;;;;;;;5072980;28;20433;-78
2023/01/22 07:40:16;;;;;;;21.17;15.43;;;;;;;;;;5057621;28;20185;-78
2023/01/22 07:42:42;;;;;;;22.88;16.73;;;;;;;;;;5024556;28;20181;-78
2023/01/22 07:45:08;;;;;;;22.40;16.27;;;;;;;;;;5048900;28;20255;-78
2023/01/22 07:47:34;;;;;;;27.08;17.35;;;;;;;;;;5053204;28;20775;-78
2023/01/22 07:50:00;;;;;;;21.60;15.73;;;;;;;;;;5028845;28;20195;-78
2023/01/22 07:52:26;;;;;;;23.50;16.40;;;;;;;;;;5031994;28;20959;-81
2023/01/22 07:54:52;;;;;;;22.65;15.25;;;;;;;;;;5030879;28;20186;-78
2023/01/22 07:57:18;;;;;;;22.63;16.07;;;;;;;;;;5045701;28;20203;-78
2023/01/22 07:59:44;;;;;;;23.60;16.47;;;;;;;;;;5070742;28;20416;-77
2023/01/22 08:02:11;;;;;;;24.40;16.88;;;;;;;;;;5045765;28;20506;-77
2023/01/22 08:04:37;;;;;;;25.40;17.50;;;;;;;;;;5053480;28;20235;-77
2023/01/22 08:07:03;;;;;;;22.65;16.23;;;;;;;;;;5055966;28;20594;-79
2023/01/22 08:09:29;;;;;;;23.45;17.08;;;;;;;;;;5046689;28;20212;-78
2023/01/22 08:11:55;;;;;;;22.58;16.73;;;;;;;;;;5035776;28;20178;-78
2023/01/22 08:14:21;;;;;;;22.70;16.13;;;;;;;;;;5060478;28;20187;-78
2023/01/22 08:16:47;;;;;;;20.30;15.90;;;;;;;;;;5040783;28;21357;-77
2023/01/22 08:19:14;;;;;;;21.17;16.13;;;;;;;;;;5042395;28;20489;-78
2023/01/22 08:21:40;;;;;;;22.95;15.85;;;;;;;;;;5044971;28;20412;-79
2023/01/22 08:24:07;;;;;;;22.20;16.25;;;;;;;;;;5059397;28;20178;-78
2023/01/22 08:26:33;;;;;;;24.70;16.98;;;;;;;;;;5050997;28;20188;-78
2023/01/22 08:28:58;;;;;;;21.65;15.40;;;;;;;;;;5049592;28;20201;-78
2023/01/22 08:31:24;;;;;;;26.20;18.00;;;;;;;;;;5060252;28;20656;-77
2023/01/22 08:33:50;;;;;;;25.30;18.00;;;;;;;;;;5051991;28;20511;-78
2023/01/22 08:36:16;;;;;;;19.67;15.47;;;;;;;;;;5060218;28;20421;-78
2023/01/22 08:38:42;;;;;;;22.23;16.87;;;;;;;;;;5068953;28;20459;-77
2023/01/22 08:41:08;;;;;;;19.90;15.97;;;;;;;;;;5044824;28;20420;-78
2023/01/22 08:43:34;;;;;;;26.33;17.53;;;;;;;;;;5061259;28;20968;-80
2023/01/22 08:46:00;;;;;;;21.65;15.98;;;;;;;;;;5060528;28;20416;-80
2023/01/22 08:48:26;;;;;;;23.10;15.03;;;;;;;;;;5044228;28;20262;-80
2023/01/22 08:50:52;;;;;;;17.17;13.52;;;;;;;;;;5044601;28;20811;-79
2023/01/22 08:53:18;;;;;;;21.80;15.45;;;;;;;;;;5078952;28;20177;-81
2023/01/22 08:55:50;;;;;;;21.80;15.70;;;;;;;;;;5061719;28;20232;-82
2023/01/22 08:58:19;;;;;;;22.13;15.02;;;;;;;;;;5061390;28;20404;-81
2023/01/22 09:00:45;;;;;;;22.45;14.98;;;;;;;;;;5078434;28;20169;-82
2023/01/22 09:03:11;;;;;;;17.13;14.05;;;;;;;;;;5077971;28;20192;-81
2023/01/22 09:05:38;;;;;;;20.88;16.58;;;;;;;;;;5060248;28;20627;-79
2023/01/22 09:08:05;;;;;;;17.77;14.20;;;;;;;;;;5039852;28;20254;-79
2023/01/22 09:10:31;;;;;;;18.65;14.23;;;;;;;;;;5034386;28;20734;-82
2023/01/22 09:13:00;;;;;;;20.80;15.18;;;;;;;;;;5037279;28;20633;-79
2023/01/22 09:15:26;;;;;;;24.75;16.10;;;;;;;;;;5037978;28;20632;-79
2023/01/22 09:17:52;;;;;;;22.02;15.32;;;;;;;;;;5020006;28;20224;-78
2023/01/22 09:20:18;;;;;;;19.73;15.82;;;;;;;;;;5046161;28;20183;-79
2023/01/22 09:22:44;;;;;;;18.55;14.00;;;;;;;;;;5040167;28;20171;-79
2023/01/22 09:25:11;;;;;;;21.00;14.85;;;;;;;;;;5040348;28;20200;-78
2023/01/22 09:27:37;;;;;;;17.73;14.13;;;;;;;;;;5038797;28;20192;-78
2023/01/22 09:30:03;;;;;;;18.35;13.50;;;;;;;;;;5020664;28;20261;-79
2023/01/22 09:32:29;;;;;;;21.58;15.18;;;;;;;;;;5020700;28;20185;-79
2023/01/22 09:34:55;;;;;;;17.52;13.95;;;;;;;;;;5020396;28;20188;-78
2023/01/22 09:37:21;;;;;;;17.75;14.20;;;;;;;;;;5023064;28;20663;-79
2023/01/22 09:39:51;;;;;;;20.85;15.65;;;;;;;;;;5052750;28;20689;-79
2023/01/22 09:42:21;;;;;;;22.15;16.90;;;;;;;;;;5056661;28;20503;-79
2023/01/22 09:44:49;;;;;;;19.13;14.95;;;;;;;;;;5054630;28;20175;-79
2023/01/22 09:47:17;;;;;;;18.83;13.75;;;;;;;;;;5057059;28;20565;-79
2023/01/22 09:49:43;;;;;;;21.05;14.40;;;;;;;;;;5055688;28;20201;-79
2023/01/22 09:52:10;;;;;;;22.60;16.67;;;;;;;;;;5056873;28;20534;-79
2023/01/22 09:54:36;;;;;;;20.35;15.05;;;;;;;;;;5056768;28;20885;-80
2023/01/22 09:57:04;;;;;;;22.05;16.23;;;;;;;;;;5057873;28;20185;-80
2023/01/22 09:59:38;;;;;;;22.73;15.65;;;;;;;;;;5057820;28;20182;-80
2023/01/22 10:02:19;;;;;;;20.75;15.52;;;;;;;;;;5058322;28;20164;-79
2023/01/22 10:04:46;;;;;;;24.00;16.92;;;;;;;;;;5057603;28;20209;-78
2023/01/22 10:07:15;;;;;;;22.15;15.60;;;;;;;;;;5066125;28;20263;-78
2023/01/22 10:09:44;;;;;;;19.33;14.82;;;;;;;;;;5059907;28;20204;-79
2023/01/22 10:12:14;;;;;;;18.90;14.95;;;;;;;;;;5077962;28;20185;-80
2023/01/22 10:14:41;;;;;;;19.70;14.75;;;;;;;;;;5077358;28;20250;-79
2023/01/22 10:17:22;;;;;;;19.65;15.80;;;;;;;;;;5057650;28;20676;-79
2023/01/22 10:19:51;;;;;;;23.70;14.88;;;;;;;;;;5059328;28;20188;-79
2023/01/22 10:22:22;;;;;;;20.58;16.20;;;;;;;;;;5059882;28;20182;-79
2023/01/22 10:24:49;;;;;;;21.35;16.05;;;;;;;;;;5059438;28;20686;-79
2023/01/22 10:27:16;;;;;;;20.90;14.23;;;;;;;;;;5044615;28;20182;-79
2023/01/22 10:29:54;;;;;;;19.83;15.15;;;;;;;;;;5056873;28;20237;-80
2023/01/22 10:32:23;;;;;;;20.55;16.00;;;;;;;;;;5038822;28;20176;-80
2023/01/22 10:34:58;;;;;;;22.08;15.57;;;;;;;;;;5056363;28;20169;-79
2023/01/22 10:37:24;;;;;;;20.17;15.13;;;;;;;;;;5039251;28;20183;-79
2023/01/22 10:39:50;;;;;;;21.77;16.50;;;;;;;;;;5039595;28;20260;-79
2023/01/22 10:42:16;;;;;;;21.42;15.00;;;;;;;;;;5039480;28;20413;-79
2023/01/22 10:44:42;;;;;;;22.10;16.98;;;;;;;;;;5039274;28;20180;-80
2023/01/22 10:47:17;;;;;;;26.17;16.15;;;;;;;;;;5070703;28;20181;-78
2023/01/22 10:49:43;;;;;;;20.02;16.63;;;;;;;;;;5059194;28;20237;-78
2023/01/22 10:52:20;;;;;;;25.00;15.90;;;;;;;;;;5077683;28;20188;-78
2023/01/22 10:54:50;;;;;;;20.55;16.25;;;;;;;;;;5059175;28;20439;-79
2023/01/22 10:57:25;;;;;;;59.22;33.63;;;;;;;;;;5045302;28;20188;-79
2023/01/22 10:59:58;;;;;;;72.82;40.53;;;;;;;;;;5045167;28;20175;-79
2023/01/22 11:02:25;;;;;;;56.30;38.08;;;;;;;;;;5059497;28;20542;-79
2023/01/22 11:04:52;;;;;;;26.85;19.60;;;;;;;;;;5042335;28;20179;-82
2023/01/22 11:07:23;;;;;;;20.65;16.35;;;;;;;;;;5044873;28;20226;-82
2023/01/22 11:10:07;;;;;;;24.92;17.45;;;;;;;;;;5056700;28;20200;-81
2023/01/22 11:12:44;;;;;;;21.73;16.20;;;;;;;;;;5053823;28;20236;-80
2023/01/22 11:15:10;;;;;;;24.27;17.65;;;;;;;;;;5057449;28;20171;-80
2023/01/22 11:17:43;;;;;;;22.97;16.70;;;;;;;;;;5038651;28;20535;-81
2023/01/22 11:20:20;;;;;;;24.15;17.40;;;;;;;;;;5059811;28;20744;-81
2023/01/22 11:22:53;;;;;;;24.48;18.27;;;;;;;;;;5076259;28;20165;-80
2023/01/22 11:25:19;;;;;;;25.02;17.73;;;;;;;;;;5067296;28;20224;-80
2023/01/22 11:27:45;;;;;;;25.33;16.05;;;;;;;;;;5056188;28;20183;-80
2023/01/22 11:30:27;;;;;;;23.40;18.08;;;;;;;;;;5056472;28;20200;-80
2023/01/22 11:33:01;;;;;;;22.30;17.20;;;;;;;;;;5037890;28;20680;-78
2023/01/22 11:35:45;;;;;;;24.02;16.92;;;;;;;;;;5039136;28;20168;-81
2023/01/22 11:38:16;;;;;;;25.90;21.42;;;;;;;;;;5033616;28;20416;-82
2023/01/22 11:40:59;;;;;;;21.90;18.15;;;;;;;;;;5056496;28;20262;-80
2023/01/22 11:43:36;;;;;;;26.92;17.85;;;;;;;;;;5055947;28;20168;-79
2023/01/22 11:46:15;;;;;;;22.70;17.38;;;;;;;;;;5041217;28;20182;-79
2023/01/22 11:48:48;;;;;;;20.67;15.55;;;;;;;;;;5041126;28;20245;-81
2023/01/22 11:51:17;;;;;;;25.77;16.15;;;;;;;;;;5052760;28;20561;-79
2023/01/22 11:54:02;;;;;;;24.83;18.05;;;;;;;;;;5053481;28;20543;-79
2023/01/22 11:56:36;;;;;;;21.58;16.83;;;;;;;;;;5052998;28;20173;-78
2023/01/22 11:59:04;;;;;;;24.85;17.40;;;;;;;;;;5052979;28;20181;-79
2023/01/22 12:01:46;;;;;;;22.45;16.23;;;;;;;;;;5053132;28;20528;-80
2023/01/22 12:04:31;;;;;;;24.30;17.80;;;;;;;;;;5054346;28;20531;-80
2023/01/22 12:06:57;;;;;;;22.92;15.25;;;;;;;;;;5049197;28;20249;-81
2023/01/22 12:09:34;;;;;;;20.33;17.10;;;;;;;;;;5049523;28;20206;-80
2023/01/22 12:12:20;;;;;;;25.35;17.05;;;;;;;;;;5039876;28;20258;-79
2023/01/22 12:15:05;;;;;;;25.67;17.90;;;;;;;;;;5054967;28;20172;-80
2023/01/22 12:17:50;;;;;;;20.63;15.95;;;;;;;;;;5050175;28;20240;-80
2023/01/22 12:20:34;;;;;;;21.33;16.63;;;;;;;;;;5035888;28;20200;-80
2023/01/22 12:23:13;;;;;;;24.50;17.55;;;;;;;;;;5036147;28;20181;-79
2023/01/22 12:25:39;;;;;;;24.15;17.65;;;;;;;;;;5066833;28;20206;-80
2023/01/22 12:28:08;;;;;;;22.60;18.00;;;;;;;;;;5066790;28;20231;-80
2023/01/22 12:30:43;;;;;;;23.92;16.63;;;;;;;;;;5067001;28;20498;-80
2023/01/22 12:33:12;;;;;;;24.88;16.67;;;;;;;;;;5067071;28;20173;-80
2023/01/22 12:35:38;;;;;;;22.67;17.38;;;;;;;;;;5035319;28;20181;-80
2023/01/22 12:38:10;;;;;;;26.23;17.00;;;;;;;;;;5033382;28;20505;-79
2023/01/22 12:40:46;;;;;;;24.83;17.15;;;;;;;;;;5034924;28;20526;-81
2023/01/22 12:43:12;;;;;;;24.42;18.00;;;;;;;;;;5067190;28;20184;-81
2023/01/22 12:45:52;;;;;;;26.65;17.88;;;;;;;;;;5066302;28;20185;-82
2023/01/22 12:48:24;;;;;;;20.48;16.20;;;;;;;;;;5066402;28;20175;-82
2023/01/22 12:50:52;;;;;;;25.75;17.75;;;;;;;;;;5067170;28;20205;-82
2023/01/22 12:53:29;;;;;;;21.55;16.80;;;;;;;;;;5066795;28;20558;-83
2023/01/22 12:55:59;;;;;;;25.40;17.40;;;;;;;;;;5067039;28;20175;-82
2023/01/22 12:58:27;;;;;;;23.95;17.27;;;;;;;;;;5067604;28;20180;-82
2023/01/22 13:01:01;;;;;;;26.20;15.77;;;;;;;;;;5052046;28;20181;-82
2023/01/22 13:03:28;;;;;;;22.55;16.58;;;;;;;;;;5066858;28;20549;-81
2023/01/22 13:05:54;;;;;;;25.17;17.90;;;;;;;;;;5050439;28;20255;-83
2023/01/22 13:08:23;;;;;;;23.30;17.80;;;;;;;;;;5052397;28;20289;-83
2023/01/22 13:10:57;;;;;;;22.27;15.82;;;;;;;;;;5053886;28;20223;-83
2023/01/22 13:13:27;;;;;;;22.85;16.05;;;;;;;;;;5036800;28;20191;-82
2023/01/22 13:15:55;;;;;;;21.33;15.45;;;;;;;;;;5035793;28;20246;-85
2023/01/22 13:18:26;;;;;;;21.40;16.05;;;;;;;;;;5036640;28;20641;-83
2023/01/22 13:21:02;;;;;;;32.40;20.92;;;;;;;;;;5036046;28;20188;-82
2023/01/22 13:23:29;;;;;;;19.65;15.55;;;;;;;;;;5038809;28;20671;-82
2023/01/22 13:25:56;;;;;;;23.05;16.65;;;;;;;;;;5040178;28;20231;-82
2023/01/22 13:28:23;;;;;;;25.63;17.60;;;;;;;;;;5058244;28;20177;-83
2023/01/22 13:31:02;;;;;;;21.33;16.30;;;;;;;;;;5060377;28;20200;-82
2023/01/22 13:33:28;;;;;;;24.27;16.27;;;;;;;;;;5068898;28;20228;-81
2023/01/22 13:35:54;;;;;;;23.77;17.15;;;;;;;;;;5050798;28;20175;-82
2023/01/22 13:38:23;;;;;;;22.60;16.92;;;;;;;;;;5052535;28;20237;-82
2023/01/22 13:40:53;;;;;;;22.20;16.17;;;;;;;;;;5039793;28;20183;-83
2023/01/22 13:43:21;;;;;;;22.70;17.60;;;;;;;;;;5040120;28;20174;-81
2023/01/22 13:45:47;;;;;;;21.80;16.27;;;;;;;;;;5057763;28;20176;-83
2023/01/22 13:48:16;;;;;;;23.85;16.13;;;;;;;;;;5058914;28;20184;-81
2023/01/22 13:50:45;;;;;;;22.98;17.13;;;;;;;;;;5062961;28;20235;-81
2023/01/22 13:53:17;;;;;;;21.92;17.85;;;;;;;;;;5054493;28;20180;-82
2023/01/22 13:55:43;;;;;;;35.08;25.98;;;;;;;;;;5063246;28;20180;-83
2023/01/22 13:58:28;;;;;;;28.05;18.80;;;;;;;;;;5051002;28;20191;-81
2023/01/22 14:00:54;;;;;;;23.77;18.42;;;;;;;;;;5073166;28;20225;-81
2023/01/22 14:03:22;;;;;;;22.97;16.90;;;;;;;;;;5066165;28;20168;-82
2023/01/22 14:05:48;;;;;;;23.05;17.90;;;;;;;;;;5077600;28;20427;-82
2023/01/22 14:08:14;;;;;;;25.23;17.92;;;;;;;;;;5070546;28;20255;-81
2023/01/22 14:10:41;;;;;;;31.63;23.75;;;;;;;;;;5057010;28;20212;-81
2023/01/22 14:13:09;;;;;;;23.00;17.50;;;;;;;;;;5042223;28;20339;-81
2023/01/22 14:15:35;;;;;;;25.40;19.25;;;;;;;;;;5039702;28;20201;-81
2023/01/22 14:18:08;;;;;;;29.38;21.38;;;;;;;;;;5057842;28;20552;-84
2023/01/22 14:20:34;;;;;;;23.48;18.30;;;;;;;;;;5039127;28;20176;-81
2023/01/22 14:23:00;;;;;;;28.85;20.63;;;;;;;;;;5057345;28;20180;-82
2023/01/22 14:25:26;;;;;;;29.90;20.00;;;;;;;;;;5057211;28;20225;-81
2023/01/22 14:27:53;;;;;;;26.65;20.33;;;;;;;;;;5072304;28;20188;-82
2023/01/22 14:30:21;;;;;;;24.60;19.27;;;;;;;;;;5039469;28;20198;-81